createdAt,value
2019-03-28T00:01:17.113Z,5.80
2019-03-28T00:03:45.699Z,5.30
2019-03-28T00:08:42.509Z,5.80
2019-03-28T00:13:39.325Z,5.60
2019-03-28T00:21:04.535Z,5.50
2019-03-28T00:23:34.775Z,5.70
2019-03-28T00:26:03.448Z,5.60
2019-03-28T00:35:56.745Z,5.50
2019-03-28T00:40:54.019Z,5.10
2019-03-28T00:48:19.143Z,5.10
2019-03-28T00:50:47.682Z,5.20
2019-03-28T00:53:16.305Z,5.50
2019-03-28T00:55:44.877Z,5.20
2019-03-28T00:58:13.424Z,5.30
2019-03-28T01:00:42.032Z,5.50
2019-03-28T01:05:39.721Z,5.20
2019-03-28T01:10:36.530Z,5.30
2019-03-28T01:13:05.107Z,5.30
2019-03-28T01:15:33.658Z,5.10
2019-03-28T01:18:02.216Z,5.70
2019-03-28T01:20:30.795Z,5.30
2019-03-28T01:22:59.453Z,5.50
2019-03-28T01:25:28.013Z,5.50
2019-03-28T01:27:56.606Z,5.50
2019-03-28T01:30:25.189Z,5.40
2019-03-28T01:32:53.827Z,5.70
2019-03-28T01:35:23.213Z,5.70
2019-03-28T01:37:51.896Z,5.30
2019-03-28T01:40:20.491Z,5.50
2019-03-28T01:42:49.080Z,5.40
2019-03-28T01:45:17.637Z,5.40
2019-03-28T01:47:46.218Z,5.30
2019-03-28T01:50:15.432Z,5.50
2019-03-28T01:55:12.440Z,5.20
2019-03-28T01:57:41.046Z,5.20
2019-03-28T02:00:12.343Z,5.10
2019-03-28T02:02:41.118Z,5.40
2019-03-28T02:05:10.769Z,5.00
2019-03-28T02:07:39.340Z,5.20
2019-03-28T02:10:08.345Z,4.90
2019-03-28T02:12:36.873Z,5.00
2019-03-28T02:15:08.367Z,5.50
2019-03-28T02:17:37.324Z,5.30
2019-03-28T02:20:07.418Z,5.30
2019-03-28T02:22:36.070Z,5.40
2019-03-28T02:30:25.272Z,5.10
2019-03-28T02:35:22.219Z,5.20
2019-03-28T02:40:19.236Z,5.00
2019-03-28T02:42:47.879Z,5.50
2019-03-28T02:45:16.596Z,5.50
2019-03-28T02:47:45.303Z,5.00
2019-03-28T02:50:14.087Z,5.00
2019-03-28T02:52:42.743Z,5.10
2019-03-28T02:55:11.496Z,5.20
2019-03-28T03:02:39.033Z,5.90
2019-03-28T03:10:08.323Z,4.90
2019-03-28T03:12:36.951Z,5.10
2019-03-28T03:15:07.461Z,5.00
2019-03-28T03:17:36.060Z,5.00
2019-03-28T03:20:06.439Z,5.40
2019-03-28T03:22:35.107Z,5.10
2019-03-28T03:27:33.312Z,5.10
2019-03-28T03:30:03.560Z,5.00
2019-03-28T03:32:32.355Z,4.90
2019-03-28T03:35:01.997Z,5.20
2019-03-28T03:37:30.995Z,4.90
2019-03-28T03:39:59.727Z,5.10
2019-03-28T03:42:28.664Z,5.10
2019-03-28T03:44:57.397Z,4.90
2019-03-28T03:47:26.155Z,4.80
2019-03-28T03:49:54.792Z,4.80
2019-03-28T03:52:23.534Z,4.90
2019-03-28T03:54:52.168Z,5.20
2019-03-28T03:57:20.841Z,4.90
2019-03-28T03:59:49.555Z,5.00
2019-03-28T04:02:18.241Z,5.10
2019-03-28T04:04:47.614Z,4.90
2019-03-28T04:07:16.480Z,5.00
2019-03-28T04:09:45.250Z,4.80
2019-03-28T04:12:13.913Z,4.40
2019-03-28T04:14:42.644Z,4.50
2019-03-28T04:17:11.332Z,4.60
2019-03-28T04:19:40.156Z,4.50
2019-03-28T04:22:09.947Z,4.50
2019-03-28T04:24:38.890Z,4.10
2019-03-28T04:27:07.582Z,4.50
2019-03-28T04:29:36.251Z,4.80
2019-03-28T04:32:05.016Z,4.20
2019-03-28T04:34:33.754Z,4.60
2019-03-28T04:37:02.366Z,4.30
2019-03-28T04:39:31.057Z,4.50
2019-03-28T04:41:59.821Z,4.50
2019-03-28T04:44:28.568Z,4.40
2019-03-28T04:46:57.301Z,4.30
2019-03-28T04:49:26.074Z,4.50
2019-03-28T04:51:54.714Z,4.40
2019-03-28T04:54:23.439Z,4.40
2019-03-28T04:56:52.160Z,4.60
2019-03-28T04:59:20.772Z,4.80
2019-03-28T05:02:02.650Z,4.80
2019-03-28T05:04:21.258Z,4.30
2019-03-28T05:06:50.383Z,4.80
2019-03-28T05:09:19.388Z,4.80
2019-03-28T05:11:48.335Z,4.70
2019-03-28T05:14:17.008Z,4.70
2019-03-28T05:16:45.692Z,5.20
2019-03-28T05:24:11.107Z,4.80
2019-03-28T05:26:39.736Z,4.80
2019-03-28T05:29:08.472Z,5.00
2019-03-28T05:31:37.185Z,4.70
2019-03-28T05:34:05.896Z,4.90
2019-03-28T05:36:34.611Z,4.50
2019-03-28T05:39:04.144Z,4.70
2019-03-28T05:44:01.184Z,4.90
2019-03-28T05:46:29.839Z,5.10
2019-03-28T05:48:58.539Z,5.00
2019-03-28T05:51:27.323Z,5.20
2019-03-28T05:53:56.114Z,4.90
2019-03-28T05:56:24.784Z,5.00
2019-03-28T05:58:54.161Z,4.80
2019-03-28T06:01:23.000Z,5.00
2019-03-28T06:06:20.355Z,4.70
2019-03-28T06:13:45.708Z,5.30
2019-03-28T06:16:14.379Z,4.90
2019-03-28T06:18:43.001Z,4.60
2019-03-28T06:21:11.701Z,5.20
2019-03-28T06:26:09.326Z,5.20
2019-03-28T06:28:38.155Z,5.20
2019-03-28T06:31:06.861Z,5.40
2019-03-28T06:36:03.879Z,5.80
2019-03-28T06:38:32.510Z,5.90
2019-03-28T06:41:01.249Z,5.80
2019-03-28T06:43:30.001Z,6.20
2019-03-28T06:45:58.792Z,6.30
2019-03-28T06:48:28.628Z,6.20
2019-03-28T06:50:57.288Z,6.30
2019-03-28T06:56:32.885Z,6.30
2019-03-28T06:59:01.472Z,6.30
2019-03-28T07:03:58.275Z,6.50
2019-03-28T07:06:26.871Z,6.90
2019-03-28T07:08:55.430Z,6.40
2019-03-28T07:16:21.223Z,6.60
2019-03-28T07:21:18.345Z,7.30
2019-03-28T07:23:47.079Z,7.30
2019-03-28T07:31:12.609Z,7.30
2019-03-28T07:33:41.308Z,7.20
2019-03-28T07:36:09.910Z,7.50
2019-03-28T07:38:38.537Z,7.20
2019-03-28T07:43:35.418Z,7.20
2019-03-28T07:46:04.049Z,7.20
2019-03-28T07:51:01.014Z,7.80
2019-03-28T07:53:29.607Z,7.70
2019-03-28T07:55:58.180Z,8.00
2019-03-28T07:58:26.770Z,8.50
2019-03-28T08:00:55.327Z,8.10
2019-03-28T08:03:23.917Z,8.40
2019-03-28T08:08:20.712Z,8.70
2019-03-28T08:10:49.346Z,8.80
2019-03-28T08:13:17.908Z,8.70
2019-03-28T08:15:46.504Z,8.60
2019-03-28T08:18:15.067Z,9.40
2019-03-28T08:20:43.657Z,9.20
2019-03-28T08:23:12.209Z,9.10
2019-03-28T08:25:41.561Z,9.20
2019-03-28T08:28:10.253Z,9.60
2019-03-28T08:30:39.662Z,9.70
2019-03-28T08:33:09.098Z,9.60
2019-03-28T08:38:09.869Z,9.60
2019-03-28T08:40:42.437Z,10.00
2019-03-28T08:43:12.423Z,9.90
2019-03-28T08:45:40.991Z,9.90
2019-03-28T08:48:09.575Z,10.20
2019-03-28T08:50:38.134Z,10.20
2019-03-28T08:53:06.803Z,10.60
2019-03-28T08:55:35.497Z,10.80
2019-03-28T08:58:04.296Z,10.40
2019-03-28T09:00:44.464Z,10.20
2019-03-28T09:03:03.211Z,10.20
2019-03-28T09:08:00.134Z,10.10
2019-03-28T09:10:28.802Z,10.20
2019-03-28T09:12:57.288Z,10.90
2019-03-28T09:15:26.018Z,11.40
2019-03-28T09:17:54.604Z,11.70
2019-03-28T09:20:23.244Z,12.00
2019-03-28T09:22:51.830Z,12.50
2019-03-28T09:25:20.386Z,12.10
2019-03-28T09:27:51.538Z,12.50
2019-03-28T09:30:31.499Z,12.00
2019-03-28T09:33:00.160Z,12.20
2019-03-28T09:35:31.626Z,12.50
2019-03-28T09:38:00.159Z,13.10
2019-03-28T09:40:48.094Z,12.90
2019-03-28T09:43:16.670Z,13.60
2019-03-28T09:45:45.312Z,13.60
2019-03-28T09:53:10.505Z,12.90
2019-03-28T09:55:39.063Z,13.50
2019-03-28T09:58:07.690Z,13.60
2019-03-28T10:00:36.672Z,13.90
2019-03-28T10:03:05.331Z,13.70
2019-03-28T10:05:33.920Z,13.00
2019-03-28T10:08:02.484Z,13.00
2019-03-28T10:10:31.139Z,12.70
2019-03-28T10:15:27.953Z,13.30
2019-03-28T10:20:24.862Z,13.10
2019-03-28T10:22:53.454Z,13.20
2019-03-28T10:27:50.283Z,14.00
2019-03-28T10:32:48.636Z,13.70
2019-03-28T10:35:25.911Z,13.60
2019-03-28T10:37:54.493Z,13.70
2019-03-28T10:45:19.578Z,13.80
2019-03-28T10:47:48.133Z,13.80
2019-03-28T10:50:16.723Z,13.70
2019-03-28T10:52:45.376Z,13.70
2019-03-28T10:55:14.037Z,13.90
2019-03-28T10:57:42.601Z,13.60
2019-03-28T11:05:09.970Z,13.00
2019-03-28T11:10:07.577Z,12.90
2019-03-28T11:20:01.664Z,12.80
2019-03-28T11:24:58.583Z,13.10
2019-03-28T11:27:27.120Z,13.00
2019-03-28T11:29:55.690Z,13.30
2019-03-28T11:32:24.271Z,13.10
2019-03-28T11:34:52.867Z,13.40
2019-03-28T11:37:26.247Z,13.50
2019-03-28T11:39:51.667Z,13.30
2019-03-28T11:44:48.726Z,13.10
2019-03-28T11:47:17.343Z,13.30
2019-03-28T11:49:45.976Z,12.70
2019-03-28T11:52:14.535Z,12.30
2019-03-28T11:54:43.128Z,13.00
2019-03-28T11:57:11.728Z,13.10
2019-03-28T11:59:40.274Z,13.20
2019-03-28T12:02:19.842Z,13.00
2019-03-28T12:04:39.156Z,13.30
2019-03-28T12:07:07.745Z,14.10
2019-03-28T12:09:36.503Z,14.30
2019-03-28T12:12:05.075Z,14.00
2019-03-28T12:14:33.696Z,14.00
2019-03-28T12:17:02.344Z,14.00
2019-03-28T12:24:27.439Z,14.10
2019-03-28T12:26:56.050Z,13.90
2019-03-28T12:29:24.609Z,14.40
2019-03-28T12:31:53.198Z,14.70
2019-03-28T12:34:21.757Z,14.40
2019-03-28T12:36:50.346Z,14.50
2019-03-28T12:39:18.942Z,14.70
2019-03-28T12:41:47.559Z,14.90
2019-03-28T12:44:16.118Z,15.20
2019-03-28T12:49:12.962Z,15.80
2019-03-28T12:54:09.772Z,15.90
2019-03-28T12:56:38.687Z,16.20
2019-03-28T12:59:07.404Z,15.70
2019-03-28T13:01:35.999Z,16.20
2019-03-28T13:04:04.592Z,15.80
2019-03-28T13:06:33.611Z,15.90
2019-03-28T13:09:02.314Z,15.10
2019-03-28T13:11:30.895Z,15.20
2019-03-28T13:13:59.543Z,15.20
2019-03-28T13:16:28.104Z,14.70
2019-03-28T13:18:56.745Z,14.00
2019-03-28T13:21:25.320Z,14.50
2019-03-28T13:23:53.981Z,14.50
2019-03-28T13:26:22.550Z,14.40
2019-03-28T13:28:51.214Z,14.10
2019-03-28T13:31:19.793Z,14.20
2019-03-28T13:33:48.433Z,14.40
2019-03-28T13:36:17.037Z,14.20
2019-03-28T13:38:45.615Z,13.70
2019-03-28T13:41:14.216Z,13.90
2019-03-28T13:43:42.777Z,14.20
2019-03-28T13:51:07.853Z,14.30
2019-03-28T13:56:06.335Z,14.10
2019-03-28T13:58:34.899Z,13.90
2019-03-28T14:01:03.559Z,13.90
2019-03-28T14:03:32.121Z,14.00
2019-03-28T14:06:00.717Z,13.90
2019-03-28T14:08:29.297Z,13.80
2019-03-28T14:10:57.960Z,13.90
2019-03-28T14:13:26.520Z,13.60
2019-03-28T14:15:55.139Z,13.60
2019-03-28T14:18:23.797Z,13.10
2019-03-28T14:20:52.391Z,13.30
2019-03-28T14:23:21.056Z,13.20
2019-03-28T14:25:53.178Z,13.00
2019-03-28T14:28:21.843Z,13.10
2019-03-28T14:33:27.186Z,13.10
2019-03-28T14:35:55.759Z,13.00
2019-03-28T14:38:24.350Z,12.80
2019-03-28T14:40:54.612Z,13.00
2019-03-28T14:43:23.656Z,13.00
2019-03-28T14:45:52.274Z,13.00
2019-03-28T14:50:49.214Z,13.20
2019-03-28T14:53:17.765Z,12.90
2019-03-28T14:55:46.710Z,12.70
2019-03-28T14:58:15.409Z,12.60
2019-03-28T15:00:49.519Z,12.70
2019-03-28T15:03:26.106Z,13.00
2019-03-28T15:05:48.891Z,12.70
2019-03-28T15:08:18.102Z,12.70
2019-03-28T15:10:47.033Z,12.80
2019-03-28T15:13:15.591Z,12.70
2019-03-28T15:15:44.251Z,12.60
2019-03-28T15:18:12.819Z,12.60
2019-03-28T15:25:38.163Z,12.50
2019-03-28T15:30:36.299Z,12.30
2019-03-28T15:33:04.935Z,12.70
2019-03-28T15:35:33.533Z,12.70
2019-03-28T15:40:30.444Z,12.90
2019-03-28T15:42:59.056Z,12.10
2019-03-28T15:45:27.821Z,12.50
2019-03-28T15:47:56.474Z,12.10
2019-03-28T15:50:25.074Z,12.50
2019-03-28T15:52:53.650Z,12.40
2019-03-28T15:55:22.277Z,12.60
2019-03-28T15:57:50.862Z,12.20
2019-03-28T16:00:19.594Z,12.20
2019-03-28T16:02:48.165Z,11.80
2019-03-28T16:05:16.831Z,12.30
2019-03-28T16:10:15.025Z,12.00
2019-03-28T16:12:43.836Z,12.30
2019-03-28T16:15:13.136Z,12.50
2019-03-28T16:17:41.793Z,12.00
2019-03-28T16:22:38.850Z,12.00
2019-03-28T16:27:35.722Z,11.90
2019-03-28T16:30:07.291Z,12.00
2019-03-28T16:32:35.808Z,12.50
2019-03-28T16:37:33.462Z,11.90
2019-03-28T16:40:10.581Z,11.90
2019-03-28T16:42:38.816Z,11.50
2019-03-28T16:45:09.198Z,11.20
2019-03-28T16:50:08.451Z,11.70
2019-03-28T16:52:36.995Z,11.10
2019-03-28T16:55:06.625Z,11.50
2019-03-28T17:00:05.677Z,11.40
2019-03-28T17:14:57.500Z,11.50
2019-03-28T17:17:26.228Z,11.70
2019-03-28T17:19:54.816Z,11.50
2019-03-28T17:32:16.718Z,11.30
2019-03-28T17:54:36.212Z,11.00
2019-03-28T17:57:05.333Z,10.90
2019-03-28T18:04:30.476Z,10.60
2019-03-28T18:06:59.328Z,10.50
2019-03-28T18:31:50.901Z,10.60
2019-03-28T18:49:10.682Z,10.20
2019-03-28T18:51:39.256Z,10.30
2019-03-28T18:54:09.369Z,10.30
2019-03-28T18:56:49.081Z,10.40
2019-03-28T19:11:40.887Z,10.30
2019-03-28T19:14:09.364Z,10.20
2019-03-28T19:24:02.744Z,9.90
2019-03-28T19:26:31.318Z,9.90
2019-03-28T19:29:01.599Z,10.30
2019-03-28T19:31:30.651Z,9.60
2019-03-28T19:43:57.259Z,9.50
2019-03-28T19:51:22.793Z,10.00
2019-03-28T19:53:54.581Z,9.80
2019-03-28T19:59:12.447Z,10.00
2019-03-28T20:01:41.346Z,9.60
2019-03-28T20:04:09.888Z,9.80
2019-03-28T20:06:38.589Z,9.80
2019-03-28T20:09:16.136Z,9.70
2019-03-28T20:16:35.395Z,9.70
2019-03-28T20:24:07.299Z,10.10
2019-03-28T20:26:35.911Z,9.70
2019-03-28T20:36:37.535Z,9.50
2019-03-28T20:41:37.070Z,9.40
2019-03-28T20:53:59.618Z,9.50
2019-03-28T20:56:31.237Z,9.40
2019-03-28T20:58:59.864Z,9.60
2019-03-28T21:03:56.769Z,9.50
2019-03-28T21:11:21.842Z,9.80
2019-03-28T21:16:18.761Z,9.40
2019-03-28T21:18:48.990Z,9.70
2019-03-28T21:21:17.518Z,9.50
2019-03-28T21:23:46.113Z,9.30
2019-03-28T21:26:15.086Z,9.50
2019-03-28T21:36:10.856Z,9.40
2019-03-28T21:46:23.756Z,9.30
2019-03-28T21:53:49.115Z,9.20
2019-03-28T21:56:17.707Z,9.50
2019-03-28T21:58:47.974Z,9.00
2019-03-28T22:08:41.295Z,9.00
2019-03-28T22:13:38.245Z,9.00
2019-03-28T22:16:07.744Z,8.80
2019-03-28T22:26:01.301Z,9.10
2019-03-28T22:33:26.424Z,8.30
2019-03-28T22:45:47.961Z,7.80
2019-03-28T22:48:16.620Z,8.00
2019-03-28T22:50:45.211Z,8.00
2019-03-28T23:03:14.837Z,7.50
2019-03-28T23:08:11.725Z,7.30
2019-03-28T23:13:08.596Z,7.30
2019-03-28T23:18:06.175Z,6.90
2019-03-28T23:23:03.138Z,6.70
2019-03-28T23:32:57.243Z,6.30
2019-03-28T23:45:19.174Z,6.50
2019-03-28T23:52:44.918Z,6.10
2019-03-28T23:55:13.489Z,5.80
2019-03-28T23:57:42.040Z,5.80
